createdAt,value
2023-10-10T00:01:07.202Z,100182.00
2023-10-10T00:03:41.000Z,100181.59
2023-10-10T00:06:15.018Z,100183.92
2023-10-10T00:08:47.959Z,100186.14
2023-10-10T00:11:20.279Z,100179.66
2023-10-10T00:13:54.330Z,100182.52
2023-10-10T00:16:27.898Z,100183.44
2023-10-10T00:19:04.780Z,100184.69
2023-10-10T00:21:36.354Z,100186.50
2023-10-10T00:24:12.269Z,100178.18
2023-10-10T00:26:44.803Z,100177.88
2023-10-10T00:29:19.374Z,100176.98
2023-10-10T00:31:56.918Z,100186.42
2023-10-10T00:34:35.380Z,100180.48
2023-10-10T00:37:12.172Z,100176.80
2023-10-10T00:39:53.493Z,100182.17
2023-10-10T00:42:38.160Z,100181.20
2023-10-10T00:45:13.773Z,100181.58
2023-10-10T00:47:54.740Z,100181.86
2023-10-10T00:50:27.563Z,100180.89
2023-10-10T00:52:58.237Z,100180.05
2023-10-10T00:55:34.623Z,100172.02
2023-10-10T00:58:09.030Z,100172.58
2023-10-10T01:00:46.071Z,100172.61
2023-10-10T01:03:22.802Z,100168.27
2023-10-10T01:05:56.650Z,100168.84
2023-10-10T01:08:31.754Z,100164.68
2023-10-10T01:11:06.194Z,100168.89
2023-10-10T01:13:37.633Z,100158.55
2023-10-10T01:16:10.053Z,100160.88
2023-10-10T01:18:52.838Z,100160.67
2023-10-10T01:21:31.919Z,100157.48
2023-10-10T01:24:07.435Z,100153.02
2023-10-10T01:26:39.708Z,100154.34
2023-10-10T01:29:23.009Z,100145.67
2023-10-10T01:31:56.039Z,100148.55
2023-10-10T01:34:41.112Z,100146.19
2023-10-10T01:37:22.378Z,100146.65
2023-10-10T01:40:17.310Z,100148.41
2023-10-10T01:42:55.219Z,100149.02
2023-10-10T01:45:28.617Z,100154.13
2023-10-10T01:48:04.280Z,100150.89
2023-10-10T01:50:35.869Z,100152.61
2023-10-10T01:53:11.138Z,100146.68
2023-10-10T01:55:43.375Z,100149.14
2023-10-10T01:58:20.777Z,100147.10
2023-10-10T02:00:52.824Z,100145.02
2023-10-10T02:03:25.401Z,100143.79
2023-10-10T02:05:57.667Z,100144.49
2023-10-10T02:08:29.151Z,100141.70
2023-10-10T02:11:03.492Z,100146.24
2023-10-10T02:13:40.962Z,100147.94
2023-10-10T02:16:13.697Z,100144.84
2023-10-10T02:18:52.696Z,100147.36
2023-10-10T02:21:44.545Z,100149.33
2023-10-10T02:24:36.067Z,100146.23
2023-10-10T02:27:07.911Z,100143.48
2023-10-10T02:29:49.122Z,100145.55
2023-10-10T02:32:21.975Z,100144.79
2023-10-10T02:35:15.797Z,100147.21
2023-10-10T02:37:48.159Z,100143.85
2023-10-10T02:40:19.802Z,100150.56
2023-10-10T02:43:11.616Z,100149.25
2023-10-10T02:45:46.356Z,100152.75
2023-10-10T02:48:22.286Z,100150.49
2023-10-10T02:50:54.289Z,100149.60
2023-10-10T02:53:25.876Z,100149.85
2023-10-10T02:56:02.840Z,100153.05
2023-10-10T02:58:39.494Z,100151.06
2023-10-10T03:01:20.771Z,100146.31
2023-10-10T03:03:56.422Z,100146.00
2023-10-10T03:06:30.409Z,100150.17
2023-10-10T03:09:14.739Z,100146.30
2023-10-10T03:12:04.755Z,100151.02
2023-10-10T03:14:37.152Z,100153.60
2023-10-10T03:17:31.003Z,100157.22
2023-10-10T03:20:14.665Z,100158.59
2023-10-10T03:23:11.263Z,100156.34
2023-10-10T03:25:49.413Z,100153.32
2023-10-10T03:28:22.860Z,100154.98
2023-10-10T03:31:05.742Z,100159.74
2023-10-10T03:33:44.401Z,100155.31
2023-10-10T03:36:25.133Z,100149.63
2023-10-10T03:39:24.746Z,100148.58
2023-10-10T03:42:10.167Z,100147.86
2023-10-10T03:47:49.798Z,100149.33
2023-10-10T03:50:41.457Z,100150.75
2023-10-10T03:53:26.969Z,100150.98
2023-10-10T03:56:12.350Z,100152.60
2023-10-10T03:58:57.668Z,100147.70
2023-10-10T04:01:43.010Z,100148.60
2023-10-10T04:04:28.219Z,100149.23
2023-10-10T04:07:13.368Z,100145.70
2023-10-10T04:10:01.687Z,100147.46
2023-10-10T04:12:46.860Z,100149.65
2023-10-10T04:15:32.621Z,100149.41
2023-10-10T04:18:17.911Z,100142.52
2023-10-10T04:21:03.090Z,100150.75
2023-10-10T04:23:48.262Z,100138.64
2023-10-10T04:26:33.927Z,100147.98
2023-10-10T04:29:19.415Z,100142.23
2023-10-10T04:32:06.916Z,100143.09
2023-10-10T04:34:52.659Z,100143.40
2023-10-10T04:37:37.856Z,100141.58
2023-10-10T04:40:24.708Z,100139.44
2023-10-10T04:43:09.870Z,100135.70
2023-10-10T04:45:55.254Z,100139.10
2023-10-10T04:48:40.609Z,100138.05
2023-10-10T04:51:26.042Z,100138.85
2023-10-10T04:54:11.466Z,100139.69
2023-10-10T04:56:56.710Z,100143.34
2023-10-10T04:59:41.954Z,100145.63
2023-10-10T05:02:27.306Z,100149.94
2023-10-10T05:05:12.644Z,100158.05
2023-10-10T05:07:58.023Z,100151.63
2023-10-10T05:10:43.300Z,100150.82
2023-10-10T05:13:28.436Z,100146.64
2023-10-10T05:16:19.608Z,100145.73
2023-10-10T05:19:04.845Z,100144.48
2023-10-10T05:21:50.070Z,100143.14
2023-10-10T05:24:25.256Z,100145.27
2023-10-10T05:26:57.833Z,100142.05
2023-10-10T05:29:31.713Z,100144.11
2023-10-10T05:32:09.514Z,100145.52
2023-10-10T05:34:42.045Z,100145.33
2023-10-10T05:37:13.340Z,100145.73
2023-10-10T05:39:47.350Z,100148.18
2023-10-10T05:42:21.998Z,100146.79
2023-10-10T05:44:53.940Z,100145.31
2023-10-10T05:47:25.400Z,100145.52
2023-10-10T05:49:58.813Z,100145.66
2023-10-10T05:52:30.159Z,100145.05
2023-10-10T05:55:01.562Z,100142.82
2023-10-10T05:57:35.318Z,100141.42
2023-10-10T06:00:11.901Z,100142.85
2023-10-10T06:02:44.267Z,100138.58
2023-10-10T06:05:17.813Z,100138.22
2023-10-10T06:07:50.843Z,100145.02
2023-10-10T06:10:24.689Z,100142.89
2023-10-10T06:12:56.485Z,100148.04
2023-10-10T06:15:29.865Z,100154.34
2023-10-10T06:18:09.676Z,100152.32
2023-10-10T06:23:22.024Z,100157.84
2023-10-10T06:26:00.398Z,100163.58
2023-10-10T06:28:37.035Z,100166.13
2023-10-10T06:31:11.786Z,100173.58
2023-10-10T06:33:43.453Z,100171.25
2023-10-10T06:36:33.723Z,100173.14
2023-10-10T06:39:19.583Z,100178.09
2023-10-10T06:41:52.804Z,100175.52
2023-10-10T06:44:37.133Z,100173.02
2023-10-10T06:47:13.548Z,100172.27
2023-10-10T06:49:55.939Z,100170.63
2023-10-10T06:52:29.547Z,100171.02
2023-10-10T06:55:11.771Z,100172.27
2023-10-10T06:57:47.038Z,100178.95
2023-10-10T07:00:29.087Z,100178.26
2023-10-10T07:03:01.558Z,100176.83
2023-10-10T07:05:35.197Z,100170.89
2023-10-10T07:08:21.325Z,100170.72
2023-10-10T07:10:54.814Z,100171.70
2023-10-10T07:13:30.826Z,100171.66
2023-10-10T07:16:03.166Z,100169.75
2023-10-10T07:18:34.618Z,100167.13
2023-10-10T07:21:09.942Z,100181.92
2023-10-10T07:23:55.118Z,100174.34
2023-10-10T07:26:31.710Z,100176.64
2023-10-10T07:29:23.179Z,100183.72
2023-10-10T07:31:59.796Z,100181.67
2023-10-10T07:34:36.516Z,100175.34
2023-10-10T07:37:10.228Z,100179.89
2023-10-10T07:39:56.405Z,100178.57
2023-10-10T07:42:30.642Z,100178.15
2023-10-10T07:45:04.450Z,100180.76
2023-10-10T07:47:56.978Z,100182.81
2023-10-10T07:50:35.905Z,100182.91
2023-10-10T07:53:08.007Z,100186.21
2023-10-10T07:55:54.360Z,100182.48
2023-10-10T07:58:41.299Z,100183.55
2023-10-10T08:01:20.484Z,100188.74
2023-10-10T08:03:52.123Z,100184.99
2023-10-10T08:06:24.393Z,100185.02
2023-10-10T08:09:11.900Z,100187.05
2023-10-10T08:11:44.558Z,100186.87
2023-10-10T08:14:18.998Z,100181.35
2023-10-10T08:17:00.210Z,100174.80
2023-10-10T08:19:34.919Z,100164.98
2023-10-10T08:22:13.865Z,100157.51
2023-10-10T08:24:45.516Z,100161.59
2023-10-10T08:27:16.885Z,100160.48
2023-10-10T08:29:48.947Z,100166.98
2023-10-10T08:32:20.393Z,100167.25
2023-10-10T08:34:51.851Z,100164.95
2023-10-10T08:37:28.243Z,100165.23
2023-10-10T08:40:16.712Z,100159.88
2023-10-10T08:42:49.222Z,100151.77
2023-10-10T08:45:25.104Z,100149.97
2023-10-10T08:48:01.855Z,100153.17
2023-10-10T08:50:34.252Z,100154.95
2023-10-10T08:53:06.529Z,100153.79
2023-10-10T08:55:40.434Z,100148.11
2023-10-10T08:58:12.574Z,100142.10
2023-10-10T09:00:45.986Z,100140.23
2023-10-10T09:03:21.148Z,100141.80
2023-10-10T09:05:52.924Z,100141.09
2023-10-10T09:08:28.884Z,100138.66
2023-10-10T09:11:00.772Z,100143.27
2023-10-10T09:13:33.225Z,100140.14
2023-10-10T09:16:08.908Z,100143.09
2023-10-10T09:18:40.452Z,100145.52
2023-10-10T09:21:20.317Z,100143.46
2023-10-10T09:24:09.155Z,100144.33
2023-10-10T09:26:44.082Z,100139.70
2023-10-10T09:29:34.025Z,100140.54
2023-10-10T09:32:06.853Z,100143.11
2023-10-10T09:34:42.102Z,100139.67
2023-10-10T09:37:18.944Z,100135.48
2023-10-10T09:39:56.363Z,100133.83
2023-10-10T09:42:46.062Z,100137.80
2023-10-10T09:45:37.325Z,100135.79
2023-10-10T09:48:18.433Z,100129.29
2023-10-10T09:51:09.378Z,100130.61
2023-10-10T09:53:41.620Z,100131.35
2023-10-10T09:56:14.857Z,100130.34
2023-10-10T09:58:48.277Z,100125.56
2023-10-10T10:01:24.437Z,100123.11
2023-10-10T10:04:01.957Z,100130.51
2023-10-10T10:07:05.986Z,100130.00
2023-10-10T10:10:10.387Z,100134.23
2023-10-10T10:13:20.599Z,100131.44
2023-10-10T10:16:09.699Z,100132.44
2023-10-10T10:18:46.986Z,100134.59
2023-10-10T10:21:31.969Z,100133.16
2023-10-10T10:24:17.640Z,100128.69
2023-10-10T10:27:24.906Z,100128.39
2023-10-10T10:30:09.941Z,100129.70
2023-10-10T10:32:44.016Z,100125.91
2023-10-10T10:35:22.894Z,100129.45
2023-10-10T10:38:00.758Z,100126.08
2023-10-10T10:40:47.386Z,100118.89
2023-10-10T10:43:32.723Z,100114.76
2023-10-10T10:46:16.054Z,100112.98
2023-10-10T10:48:56.080Z,100118.21
2023-10-10T10:51:29.563Z,100106.98
2023-10-10T10:54:01.281Z,100108.05
2023-10-10T10:56:45.725Z,100103.40
2023-10-10T10:59:21.934Z,100101.70
2023-10-10T11:01:57.993Z,100096.80
2023-10-10T11:04:43.928Z,100093.34
2023-10-10T11:07:27.542Z,100093.95
2023-10-10T11:10:09.004Z,100092.00
2023-10-10T11:12:41.428Z,100091.06
2023-10-10T11:15:13.531Z,100089.69
2023-10-10T11:18:08.924Z,100087.95
2023-10-10T11:20:57.946Z,100082.80
2023-10-10T11:23:43.238Z,100076.76
2023-10-10T11:26:16.818Z,100075.35
2023-10-10T11:28:49.715Z,100073.78
2023-10-10T11:31:25.376Z,100068.91
2023-10-10T11:34:12.266Z,100069.48
2023-10-10T11:36:43.865Z,100070.77
2023-10-10T11:39:32.972Z,100067.73
2023-10-10T11:42:06.724Z,100058.95
2023-10-10T11:44:43.023Z,100061.37
2023-10-10T11:47:25.867Z,100060.73
2023-10-10T11:50:06.909Z,100064.10
2023-10-10T11:52:51.423Z,100057.09
2023-10-10T11:55:23.518Z,100054.73
2023-10-10T11:57:59.407Z,100055.83
2023-10-10T12:00:37.065Z,100055.79
2023-10-10T12:03:09.011Z,100054.33
2023-10-10T12:05:49.651Z,100049.15
2023-10-10T12:08:25.971Z,100050.36
2023-10-10T12:11:07.893Z,100049.13
2023-10-10T12:13:39.342Z,100046.70
2023-10-10T12:16:11.993Z,100039.64
2023-10-10T12:18:51.139Z,100039.51
2023-10-10T12:21:26.948Z,100034.59
2023-10-10T12:24:02.704Z,100031.73
2023-10-10T12:26:40.067Z,100028.63
2023-10-10T12:29:12.582Z,100025.66
2023-10-10T12:31:44.313Z,100019.05
2023-10-10T12:34:20.594Z,100015.79
2023-10-10T12:36:51.911Z,100014.10
2023-10-10T12:39:28.665Z,100010.34
2023-10-10T12:42:01.059Z,100004.89
2023-10-10T12:44:32.492Z,100002.66
2023-10-10T12:47:07.901Z,100000.99
2023-10-10T12:49:46.046Z,100002.08
2023-10-10T12:52:19.080Z,99999.60
2023-10-10T12:54:59.731Z,99998.16
2023-10-10T12:57:34.112Z,99998.39
2023-10-10T13:00:27.374Z,99996.50
2023-10-10T13:02:58.786Z,99997.14
2023-10-10T13:05:30.507Z,99993.92
2023-10-10T13:08:07.490Z,99989.95
2023-10-10T13:10:39.153Z,99983.10
2023-10-10T13:13:10.551Z,99982.34
2023-10-10T13:15:53.381Z,99980.52
2023-10-10T13:18:26.823Z,99978.11
2023-10-10T13:21:01.472Z,99973.77
2023-10-10T13:23:32.846Z,99967.10
2023-10-10T13:26:07.515Z,99967.58
2023-10-10T13:28:45.567Z,99967.77
2023-10-10T13:31:18.329Z,99967.71
2023-10-10T13:33:49.976Z,99966.42
2023-10-10T13:36:21.835Z,99964.11
2023-10-10T13:38:58.993Z,99965.45
2023-10-10T13:41:30.452Z,99959.34
2023-10-10T13:44:01.868Z,99958.83
2023-10-10T13:46:36.030Z,99961.55
2023-10-10T13:49:10.307Z,99958.01
2023-10-10T13:51:42.140Z,99954.76
2023-10-10T13:54:14.704Z,99956.86
2023-10-10T13:56:46.252Z,99952.48
2023-10-10T13:59:18.516Z,99946.26
2023-10-10T14:01:53.638Z,99946.38
2023-10-10T14:04:28.648Z,99939.84
2023-10-10T14:07:02.217Z,99939.58
2023-10-10T14:09:39.960Z,99934.70
2023-10-10T14:12:22.180Z,99937.11
2023-10-10T14:14:53.513Z,99938.33
2023-10-10T14:17:24.964Z,99936.46
2023-10-10T14:19:59.512Z,99935.83
2023-10-10T14:22:37.935Z,99933.23
2023-10-10T14:25:21.364Z,99936.48
2023-10-10T14:27:52.704Z,99933.58
2023-10-10T14:30:24.929Z,99930.04
2023-10-10T14:32:57.721Z,99927.81
2023-10-10T14:35:29.387Z,99928.16
2023-10-10T14:38:02.843Z,99929.95
2023-10-10T14:40:35.776Z,99932.60
2023-10-10T14:43:08.221Z,99939.39
2023-10-10T14:45:44.301Z,99940.06
2023-10-10T14:48:20.398Z,99936.66
2023-10-10T14:50:54.001Z,99937.78
2023-10-10T14:53:25.550Z,99928.27
2023-10-10T14:55:57.075Z,99932.67
2023-10-10T14:58:28.389Z,99936.52
2023-10-10T15:00:59.895Z,99934.64
2023-10-10T15:03:42.399Z,99937.06
2023-10-10T15:06:17.092Z,99935.61
2023-10-10T15:08:48.444Z,99934.53
2023-10-10T15:11:19.814Z,99936.27
2023-10-10T15:13:51.351Z,99937.87
2023-10-10T15:16:24.342Z,99936.52
2023-10-10T15:18:55.892Z,99934.38
2023-10-10T15:21:33.925Z,99933.45
2023-10-10T15:24:12.570Z,99929.44
2023-10-10T15:26:46.891Z,99930.45
2023-10-10T15:29:22.096Z,99926.52
2023-10-10T15:31:53.557Z,99922.56
2023-10-10T15:34:24.887Z,99926.01
2023-10-10T15:36:58.377Z,99924.30
2023-10-10T15:39:31.122Z,99928.48
2023-10-10T15:42:05.861Z,99924.57
2023-10-10T15:44:42.353Z,99925.42
2023-10-10T15:47:14.050Z,99928.34
2023-10-10T15:49:48.052Z,99927.80
2023-10-10T15:52:19.721Z,99932.05
2023-10-10T15:54:51.937Z,99928.48
2023-10-10T15:57:27.288Z,99926.05
2023-10-10T15:59:58.635Z,99930.45
2023-10-10T16:02:32.205Z,99931.92
2023-10-10T16:05:05.118Z,99934.10
2023-10-10T16:07:36.392Z,99931.13
2023-10-10T16:10:08.974Z,99934.95
2023-10-10T16:12:44.037Z,99931.79
2023-10-10T16:15:30.448Z,99932.27
2023-10-10T16:18:02.480Z,99933.55
2023-10-10T16:20:37.402Z,99932.58
2023-10-10T16:23:09.624Z,99933.35
2023-10-10T16:25:41.332Z,99939.38
2023-10-10T16:28:12.839Z,99939.08
2023-10-10T16:30:44.209Z,99943.62
2023-10-10T16:33:15.614Z,99943.94
2023-10-10T16:35:47.636Z,99947.52
2023-10-10T16:38:23.538Z,99949.95
2023-10-10T16:40:55.086Z,99948.93
2023-10-10T16:43:26.645Z,99949.05
2023-10-10T16:45:58.014Z,99948.02
2023-10-10T16:48:32.576Z,99941.73
2023-10-10T16:51:04.081Z,99941.50
2023-10-10T16:53:35.360Z,99944.14
2023-10-10T16:56:07.987Z,99943.16
2023-10-10T16:58:39.629Z,99945.48
2023-10-10T17:01:13.787Z,99944.91
2023-10-10T17:03:47.701Z,99943.89
2023-10-10T17:06:23.606Z,99943.72
2023-10-10T17:08:56.874Z,99947.45
2023-10-10T17:11:28.880Z,99948.85
2023-10-10T17:14:04.576Z,99947.64
2023-10-10T17:16:36.611Z,99948.94
2023-10-10T17:19:16.994Z,99941.00
2023-10-10T17:21:49.396Z,99946.04
2023-10-10T17:24:21.205Z,99944.11
2023-10-10T17:26:54.959Z,99943.71
2023-10-10T17:29:27.900Z,99945.42
2023-10-10T17:31:59.306Z,99943.77
2023-10-10T17:34:34.551Z,99943.10
2023-10-10T17:37:12.641Z,99944.95
2023-10-10T17:39:44.120Z,99948.21
2023-10-10T17:42:15.424Z,99945.46
2023-10-10T17:44:46.942Z,99952.71
2023-10-10T17:47:18.366Z,99954.06
2023-10-10T17:49:49.678Z,99954.48
2023-10-10T17:52:20.996Z,99953.80
2023-10-10T17:54:52.434Z,99954.58
2023-10-10T17:57:24.091Z,99954.37
2023-10-10T17:59:55.392Z,99958.97
2023-10-10T18:02:26.808Z,99960.39
2023-10-10T18:04:59.654Z,99959.80
2023-10-10T18:07:30.942Z,99963.84
2023-10-10T18:10:02.221Z,99958.80
2023-10-10T18:12:35.525Z,99959.06
2023-10-10T18:15:11.261Z,99960.26
2023-10-10T18:17:43.337Z,99960.98
2023-10-10T18:20:17.706Z,99959.83
2023-10-10T18:22:52.562Z,99955.00
2023-10-10T18:25:27.089Z,99958.95
2023-10-10T18:27:58.365Z,99957.83
2023-10-10T18:30:29.696Z,99955.28
2023-10-10T18:33:02.051Z,99956.52
2023-10-10T18:35:33.476Z,99950.61
2023-10-10T18:38:08.780Z,99945.61
2023-10-10T18:40:45.304Z,99941.98
2023-10-10T18:43:16.731Z,99940.84
2023-10-10T18:45:48.054Z,99936.31
2023-10-10T18:48:20.120Z,99936.98
2023-10-10T18:50:51.727Z,99933.77
2023-10-10T18:53:26.669Z,99934.44
2023-10-10T18:55:59.854Z,99934.20
2023-10-10T18:58:32.406Z,99933.05
2023-10-10T19:01:03.780Z,99928.95
2023-10-10T19:03:35.385Z,99931.63
2023-10-10T19:06:07.880Z,99935.23
2023-10-10T19:08:39.379Z,99933.89
2023-10-10T19:11:12.090Z,99937.73
2023-10-10T19:13:50.030Z,99928.82
2023-10-10T19:16:22.746Z,99926.80
2023-10-10T19:18:55.596Z,99928.88
2023-10-10T19:21:31.706Z,99931.71
2023-10-10T19:24:03.500Z,99929.21
2023-10-10T19:26:36.421Z,99924.15
2023-10-10T19:29:08.775Z,99924.18
2023-10-10T19:31:41.328Z,99924.45
2023-10-10T19:34:13.046Z,99922.80
2023-10-10T19:36:45.929Z,99923.31
2023-10-10T19:39:21.766Z,99922.52
2023-10-10T19:41:54.168Z,99925.36
2023-10-10T19:44:27.091Z,99919.98
2023-10-10T19:46:58.495Z,99926.05
2023-10-10T19:49:35.955Z,99923.76
2023-10-10T19:52:07.607Z,99928.02
2023-10-10T19:54:40.899Z,99928.78
2023-10-10T19:57:14.096Z,99932.31
2023-10-10T19:59:45.913Z,99925.16
2023-10-10T20:02:18.489Z,99922.23
2023-10-10T20:04:50.170Z,99924.14
2023-10-10T20:07:21.558Z,99921.70
2023-10-10T20:09:53.688Z,99918.98
2023-10-10T20:12:25.424Z,99919.66
2023-10-10T20:14:57.350Z,99913.99
2023-10-10T20:17:28.865Z,99912.05
2023-10-10T20:20:03.770Z,99907.89
2023-10-10T20:22:36.543Z,99916.21
2023-10-10T20:25:13.040Z,99916.45
2023-10-10T20:27:44.299Z,99917.36
2023-10-10T20:30:19.593Z,99913.70
2023-10-10T20:32:53.938Z,99917.66
2023-10-10T20:35:27.164Z,99917.15
2023-10-10T20:38:00.557Z,99914.77
2023-10-10T20:40:32.324Z,99913.50
2023-10-10T20:43:05.673Z,99913.08
2023-10-10T20:45:37.323Z,99908.45
2023-10-10T20:48:12.703Z,99906.70
2023-10-10T20:50:45.293Z,99901.91
2023-10-10T20:53:17.804Z,99899.20
2023-10-10T20:55:50.857Z,99899.73
2023-10-10T20:58:23.209Z,99893.95
2023-10-10T21:00:56.136Z,99893.58
2023-10-10T21:03:27.826Z,99891.89
2023-10-10T21:05:59.457Z,99889.24
2023-10-10T21:08:31.966Z,99886.66
2023-10-10T21:11:10.462Z,99884.11
2023-10-10T21:13:42.048Z,99884.90
2023-10-10T21:16:17.199Z,99885.19
2023-10-10T21:18:49.235Z,99883.39
2023-10-10T21:21:23.053Z,99889.39
2023-10-10T21:23:54.599Z,99886.11
2023-10-10T21:26:26.019Z,99890.27
2023-10-10T21:28:57.328Z,99888.48
2023-10-10T21:31:30.599Z,99884.58
2023-10-10T21:34:02.198Z,99881.19
2023-10-10T21:36:33.822Z,99877.45
2023-10-10T21:39:06.411Z,99877.76
2023-10-10T21:41:38.456Z,99878.00
2023-10-10T21:44:12.080Z,99880.11
2023-10-10T21:46:43.488Z,99875.30
2023-10-10T21:49:16.334Z,99875.71
2023-10-10T21:51:47.850Z,99880.48
2023-10-10T21:54:23.244Z,99874.30
2023-10-10T21:56:55.193Z,99871.40
2023-10-10T21:59:27.240Z,99872.83
2023-10-10T22:01:58.733Z,99870.59
2023-10-10T22:04:31.272Z,99870.88
2023-10-10T22:07:01.863Z,99873.06
2023-10-10T22:09:34.332Z,99869.02
2023-10-10T22:12:08.359Z,99871.48
2023-10-10T22:14:39.677Z,99870.13
2023-10-10T22:17:13.393Z,99874.51
2023-10-10T22:19:47.425Z,99869.13
2023-10-10T22:22:19.832Z,99864.86
2023-10-10T22:24:51.173Z,99859.00
2023-10-10T22:27:22.873Z,99858.49
2023-10-10T22:29:54.291Z,99856.84
2023-10-10T22:32:27.017Z,99857.51
2023-10-10T22:34:58.503Z,99857.20
2023-10-10T22:37:29.923Z,99858.98
2023-10-10T22:40:01.320Z,99857.87
2023-10-10T22:42:33.139Z,99862.24
2023-10-10T22:45:05.019Z,99864.94
2023-10-10T22:47:36.399Z,99861.52
2023-10-10T22:50:16.060Z,99859.71
2023-10-10T22:52:47.476Z,99853.41
2023-10-10T22:55:19.161Z,99853.10
2023-10-10T22:57:51.692Z,99853.91
2023-10-10T23:00:27.771Z,99853.90
2023-10-10T23:03:01.556Z,99854.02
2023-10-10T23:05:34.445Z,99855.09
2023-10-10T23:08:07.097Z,99851.95
2023-10-10T23:10:40.303Z,99852.13
2023-10-10T23:13:14.305Z,99849.64
2023-10-10T23:15:50.137Z,99852.43
2023-10-10T23:18:21.937Z,99852.27
2023-10-10T23:20:54.068Z,99853.92
2023-10-10T23:23:27.837Z,99850.14
2023-10-10T23:25:59.144Z,99850.69
2023-10-10T23:28:30.509Z,99850.77
2023-10-10T23:31:02.231Z,99855.13
2023-10-10T23:33:33.720Z,99848.67
2023-10-10T23:36:07.600Z,99846.80
2023-10-10T23:38:41.466Z,99849.38
2023-10-10T23:41:15.305Z,99848.87
2023-10-10T23:43:47.690Z,99844.39
2023-10-10T23:46:23.241Z,99846.13
2023-10-10T23:48:58.453Z,99845.88
2023-10-10T23:51:30.215Z,99847.29
2023-10-10T23:54:01.552Z,99851.91
2023-10-10T23:56:35.220Z,99847.59
2023-10-10T23:59:09.309Z,99844.77
